Fort Stockton, Texas
Current Conditions -  °F | °C
As of 7:53 PM on Friday 24 Oct 2014 (Local Time) from KFST Reporting Station
Clear Clear  
Wind Chill: 76°   Ceiling: Unl
Heat Index: 76°   Visibility: 10mi
Dew Point: 47°   Wind: 3mph
Humidity: 36%   Direction: 40°NE
Pressure: 30.14"   Gusts: NA
Location:  30.89°N, 102.88°W
Report Text: KFST 250053Z AUTO 04003KT 10SM CLR 24/08 A3014 RMK AO2 SLP167 T02440083
Loading
Personal Weather Stations






























Interactive Weather Map
Tropical Storm Tracking
New forecast layout! Learn more

10-Day Weather Forecast

Advertisements
Track Severe Weather on mobile